Time;durP1;ratioP1;P1;durP2;ratioP2;P2;SDS_P1;SDS_P2;PMS_P1;PMS_P2;Temp;Humidity;BMP_temperature;BMP_pressure;BME280_temperature;BME280_humidity;BME280_pressure;Samples;Min_cycle;Max_cycle;Signal;HPM_P1;HPM_P2
2022/03/14 00:00:22;;;;;;;10.85;4.65;;;;;;;1.37;100.00;100756.56;5043019;28;20044;-79
2022/03/14 00:02:48;;;;;;;4.13;2.47;;;;;;;1.34;100.00;100759.44;5045791;28;20115;-78
2022/03/14 00:05:15;;;;;;;6.90;1.50;;;;;;;1.37;100.00;100752.09;5059529;28;20040;-79
2022/03/14 00:07:44;;;;;;;5.22;2.85;;;;;;;1.45;100.00;100762.13;5057678;28;20043;-79
2022/03/14 00:10:10;;;;;;;14.20;3.42;;;;;;;1.46;100.00;100766.47;5057501;28;20156;-79
2022/03/14 00:12:37;;;;;;;8.50;1.92;;;;;;;1.36;100.00;100754.88;5063780;28;20040;-79
2022/03/14 00:15:08;;;;;;;10.75;3.15;;;;;;;1.43;100.00;100775.50;5044456;28;20407;-78
2022/03/14 00:17:34;;;;;;;9.00;3.38;;;;;;;1.44;100.00;100790.41;5050143;28;20040;-79
2022/03/14 00:20:04;;;;;;;10.77;2.35;;;;;;;1.37;100.00;100804.25;5046866;28;20041;-79
2022/03/14 00:22:31;;;;;;;16.30;3.90;;;;;;;1.36;100.00;100807.88;5046664;28;20032;-79
2022/03/14 00:24:57;;;;;;;5.88;2.90;;;;;;;1.36;100.00;100794.63;5065042;28;20458;-80
2022/03/14 00:27:22;;;;;;;11.38;3.03;;;;;;;1.34;100.00;100794.72;5060829;28;20037;-79
2022/03/14 00:29:48;;;;;;;12.60;3.15;;;;;;;1.24;100.00;100794.56;5040959;28;20539;-78
2022/03/14 00:32:14;;;;;;;9.43;2.55;;;;;;;1.30;100.00;100817.97;5061443;28;20546;-78
2022/03/14 00:34:39;;;;;;;9.52;2.55;;;;;;;1.28;100.00;100817.22;5035588;28;20522;-78
2022/03/14 00:37:05;;;;;;;5.90;1.75;;;;;;;1.25;100.00;100825.41;5034965;28;20040;-78
2022/03/14 00:39:30;;;;;;;5.35;1.98;;;;;;;1.17;100.00;100819.00;5030560;28;20086;-78
2022/03/14 00:41:56;;;;;;;11.05;2.63;;;;;;;1.21;100.00;100826.56;5052440;28;20394;-76
2022/03/14 00:44:22;;;;;;;12.02;3.05;;;;;;;1.16;100.00;100834.00;5052823;28;20114;-76
2022/03/14 00:46:47;;;;;;;6.60;2.15;;;;;;;1.18;100.00;100841.84;5052236;28;20497;-77
2022/03/14 00:49:13;;;;;;;5.57;2.22;;;;;;;1.22;100.00;100838.03;5069623;28;20128;-78
2022/03/14 00:51:40;;;;;;;16.55;4.20;;;;;;;1.16;100.00;100833.16;5053348;28;20035;-77
2022/03/14 00:54:06;;;;;;;8.70;2.45;;;;;;;1.35;100.00;100856.50;5038282;28;20094;-77
2022/03/14 00:56:32;;;;;;;13.20;2.75;;;;;;;1.50;100.00;100858.00;5066735;28;20017;-77
2022/03/14 00:59:01;;;;;;;9.20;2.75;;;;;;;1.52;100.00;100862.22;5031001;28;20043;-78
2022/03/14 01:01:27;;;;;;;7.05;2.60;;;;;;;1.48;100.00;100870.50;5047743;28;20040;-76
2022/03/14 01:03:54;;;;;;;11.55;3.70;;;;;;;1.40;100.00;100879.03;5037803;28;20474;-77
2022/03/14 01:06:20;;;;;;;5.68;2.53;;;;;;;1.41;100.00;100880.75;5052853;28;20473;-77
2022/03/14 01:08:46;;;;;;;6.07;2.35;;;;;;;1.39;100.00;100876.50;5052841;28;20903;-76
2022/03/14 01:11:11;;;;;;;8.10;2.47;;;;;;;1.36;100.00;100887.34;5063370;28;20123;-78
2022/03/14 01:13:37;;;;;;;8.52;1.83;;;;;;;1.24;100.00;100881.13;5032904;28;20036;-76
2022/03/14 01:16:03;;;;;;;6.90;1.58;;;;;;;1.15;100.00;100895.91;5047422;28;20039;-78
2022/03/14 01:18:29;;;;;;;10.60;1.73;;;;;;;1.12;100.00;100895.28;5069323;28;20080;-78
2022/03/14 01:20:55;;;;;;;7.43;1.40;;;;;;;0.94;100.00;100866.53;5051717;28;20051;-76
2022/03/14 01:23:21;;;;;;;4.35;1.55;;;;;;;1.10;100.00;100914.75;5068354;28;20037;-77
2022/03/14 01:25:49;;;;;;;7.28;2.35;;;;;;;0.95;100.00;100893.84;5067663;28;20397;-77
2022/03/14 01:28:15;;;;;;;7.00;2.00;;;;;;;1.01;100.00;100919.91;5067989;28;20028;-78
2022/03/14 01:30:43;;;;;;;6.97;2.15;;;;;;;0.85;100.00;100909.56;5050992;28;20501;-78
2022/03/14 01:33:08;;;;;;;6.40;2.22;;;;;;;0.88;100.00;100930.50;5060715;28;20036;-79
2022/03/14 01:35:35;;;;;;;14.57;2.42;;;;;;;0.80;100.00;100936.34;5054517;28;20037;-78
2022/03/14 01:38:01;;;;;;;9.02;2.05;;;;;;;0.82;100.00;100931.78;5062142;28;20029;-77
2022/03/14 01:40:28;;;;;;;8.23;2.38;;;;;;;0.84;100.00;100936.97;5065250;28;20489;-77
2022/03/14 01:42:54;;;;;;;9.85;2.10;;;;;;;0.89;100.00;100942.78;5032572;28;20488;-78
2022/03/14 01:45:22;;;;;;;7.68;1.58;;;;;;;0.85;100.00;100942.16;5033698;28;20028;-78
2022/03/14 01:47:51;;;;;;;5.60;1.95;;;;;;;0.76;100.00;100937.50;5049968;28;20041;-78
2022/03/14 01:50:17;;;;;;;14.82;2.30;;;;;;;0.86;100.00;100951.78;5042467;28;20116;-79
2022/03/14 01:52:44;;;;;;;9.02;1.42;;;;;;;0.90;100.00;100960.38;5067038;28;20036;-77
2022/03/14 01:55:10;;;;;;;2.58;1.80;;;;;;;0.85;100.00;100951.91;5031986;28;20017;-78
2022/03/14 01:57:37;;;;;;;10.80;1.90;;;;;;;0.90;100.00;100962.16;5034237;28;20043;-78
2022/03/14 02:00:05;;;;;;;8.68;2.03;;;;;;;0.91;100.00;100977.94;5050543;28;20043;-77
2022/03/14 02:02:31;;;;;;;12.15;1.90;;;;;;;0.81;100.00;100963.66;5039522;28;20024;-78
2022/03/14 02:04:56;;;;;;;4.50;1.80;;;;;;;0.99;100.00;100977.41;5051986;28;20078;-78
2022/03/14 02:07:23;;;;;;;8.73;1.92;;;;;;;0.98;100.00;100965.09;5049669;28;20058;-79
2022/03/14 02:09:49;;;;;;;9.90;2.85;;;;;;;1.18;100.00;100991.03;5049298;28;20051;-78
2022/03/14 02:12:15;;;;;;;8.05;2.15;;;;;;;1.35;100.00;100996.91;5032586;28;20074;-78
2022/03/14 02:14:41;;;;;;;12.00;2.20;;;;;;;1.43;100.00;101007.78;5071763;28;20478;-78
2022/03/14 02:17:09;;;;;;;5.85;2.10;;;;;;;1.59;100.00;101020.78;5033236;28;20082;-78
2022/03/14 02:19:34;;;;;;;7.90;2.17;;;;;;;1.57;100.00;101023.56;5050624;28;20110;-78
2022/03/14 02:22:02;;;;;;;9.90;2.33;;;;;;;1.41;100.00;101028.28;5047471;28;20071;-78
2022/03/14 02:24:29;;;;;;;8.85;2.10;;;;;;;1.31;100.00;101034.22;5050548;28;20055;-78
2022/03/14 02:26:55;;;;;;;12.10;2.70;;;;;;;1.26;100.00;101033.69;5049496;28;20032;-78
2022/03/14 02:29:21;;;;;;;7.60;2.60;;;;;;;1.11;100.00;101029.47;5033658;28;20415;-78
2022/03/14 02:31:47;;;;;;;13.70;2.38;;;;;;;0.99;100.00;101040.94;5067986;28;20024;-78
2022/03/14 02:34:13;;;;;;;9.38;1.90;;;;;;;0.96;100.00;101049.13;5032060;28;20044;-78
2022/03/14 02:36:39;;;;;;;10.82;2.00;;;;;;;0.93;100.00;101049.31;5031432;28;20371;-78
2022/03/14 02:39:06;;;;;;;5.88;2.33;;;;;;;0.86;100.00;101036.50;5049733;28;20367;-78
2022/03/14 02:41:32;;;;;;;8.30;1.77;;;;;;;0.99;100.00;101035.66;5067988;28;20025;-79
2022/03/14 02:43:58;;;;;;;8.90;1.58;;;;;;;1.13;100.00;101045.28;5069831;28;20032;-78
2022/03/14 02:46:34;;;;;;;12.85;1.83;;;;;;;1.12;100.00;101044.44;5057189;28;20384;-78
2022/03/14 02:49:00;;;;;;;5.20;1.35;;;;;;;1.13;100.00;101045.28;5039599;28;20063;-78
2022/03/14 02:51:26;;;;;;;10.70;1.92;;;;;;;1.08;100.00;101054.38;5051315;28;20032;-78
2022/03/14 02:53:52;;;;;;;9.05;1.67;;;;;;;1.05;100.00;101059.03;5071519;28;20543;-78
2022/03/14 02:56:20;;;;;;;10.95;1.77;;;;;;;0.96;100.00;101062.34;5038544;28;20043;-77
2022/03/14 02:58:53;;;;;;;12.40;2.38;;;;;;;0.95;100.00;101060.63;5069020;28;20028;-78
2022/03/14 03:01:20;;;;;;;5.43;1.65;;;;;;;0.94;100.00;101064.25;5068024;28;20078;-79
2022/03/14 03:03:45;;;;;;;5.53;1.55;;;;;;;0.86;100.00;101054.19;5054200;28;20395;-77
2022/03/14 03:06:13;;;;;;;3.50;2.05;;;;;;;0.94;100.00;101066.91;5066557;28;20089;-77
2022/03/14 03:08:43;;;;;;;8.98;1.30;;;;;;;0.93;100.00;101073.13;5038017;28;20040;-78
2022/03/14 03:11:10;;;;;;;12.88;2.47;;;;;;;0.79;100.00;101074.94;5052860;28;20028;-78
2022/03/14 03:13:35;;;;;;;8.68;1.65;;;;;;;0.76;100.00;101069.84;5053565;28;20062;-77
2022/03/14 03:16:01;;;;;;;5.35;1.60;;;;;;;0.78;100.00;101073.25;5065159;28;20067;-79
2022/03/14 03:18:27;;;;;;;10.00;1.75;;;;;;;0.69;100.00;101067.72;5052326;28;20033;-78
2022/03/14 03:20:52;;;;;;;14.43;1.92;;;;;;;0.75;100.00;101091.16;5050929;28;20496;-79
2022/03/14 03:23:19;;;;;;;5.90;1.45;;;;;;;0.71;100.00;101090.47;5066024;28;20036;-78
2022/03/14 03:25:45;;;;;;;10.50;1.80;;;;;;;0.76;100.00;101084.88;5035274;28;21996;-79
2022/03/14 03:28:10;;;;;;;7.03;1.55;;;;;;;0.70;100.00;101103.84;5069252;28;20119;-80
2022/03/14 03:30:36;;;;;;;8.88;1.65;;;;;;;0.63;100.00;101116.63;5049979;28;20111;-79
2022/03/14 03:33:02;;;;;;;9.45;1.85;;;;;;;0.54;100.00;101114.59;5036947;28;20028;-78
2022/03/14 03:35:27;;;;;;;5.13;2.08;;;;;;;0.43;100.00;101125.91;5054237;28;20111;-79
2022/03/14 03:37:53;;;;;;;9.52;1.88;;;;;;;0.22;100.00;101126.34;5048435;28;20032;-79
2022/03/14 03:40:19;;;;;;;9.68;2.05;;;;;;;0.07;100.00;101137.09;5053733;28;20378;-78
2022/03/14 03:42:44;;;;;;;8.40;1.52;;;;;;;-0.06;100.00;101132.56;5037940;28;20044;-79
2022/03/14 03:45:13;;;;;;;9.65;1.70;;;;;;;-0.04;100.00;101138.63;5048075;28;20040;-79
2022/03/14 03:47:40;;;;;;;5.72;1.70;;;;;;;-0.12;100.00;101140.06;5048744;28;20037;-78
2022/03/14 03:50:06;;;;;;;10.20;1.75;;;;;;;-0.16;100.00;101144.69;5066031;28;20472;-79
2022/03/14 03:52:32;;;;;;;5.03;1.33;;;;;;;-0.24;100.00;101149.59;5051927;28;20178;-79
2022/03/14 03:54:58;;;;;;;5.55;1.40;;;;;;;-0.26;100.00;101144.44;5072830;28;20103;-79
2022/03/14 03:57:23;;;;;;;13.90;1.75;;;;;;;-0.14;100.00;101155.16;5053022;28;20036;-79
2022/03/14 03:59:49;;;;;;;6.10;1.42;;;;;;;-0.17;100.00;101164.13;5048295;28;20139;-79
2022/03/14 04:02:19;;;;;;;16.17;1.88;;;;;;;-0.14;100.00;101165.72;5071194;28;20032;-78
2022/03/14 04:04:49;;;;;;;9.20;1.50;;;;;;;-0.03;100.00;101155.31;5070110;28;20032;-79
2022/03/14 04:07:19;;;;;;;6.15;1.33;;;;;;;-0.22;100.00;101126.56;5052602;28;20040;-78
2022/03/14 04:09:55;;;;;;;8.57;1.75;;;;;;;-0.11;100.00;101157.59;5036376;28;20417;-79
2022/03/14 04:12:24;;;;;;;3.80;1.55;;;;;;;-0.08;100.00;101168.84;5044816;28;20165;-79
2022/03/14 04:14:51;;;;;;;5.95;1.40;;;;;;;-0.20;100.00;101137.06;5050466;28;20072;-79
2022/03/14 04:17:18;;;;;;;10.90;2.20;;;;;;;0.08;100.00;101175.78;5064088;28;20036;-78
2022/03/14 04:19:44;;;;;;;5.15;1.40;;;;;;;0.03;100.00;101172.56;5056255;28;20115;-79
2022/03/14 04:22:10;;;;;;;12.10;1.70;;;;;;;-0.04;100.00;101161.56;5048759;28;20033;-80
2022/03/14 04:24:36;;;;;;;9.57;1.50;;;;;;;0.07;100.00;101187.31;5034254;28;20049;-78
2022/03/14 04:27:02;;;;;;;9.52;1.45;;;;;;;0.04;100.00;101187.50;5069851;28;20032;-80
2022/03/14 04:29:28;;;;;;;10.60;2.67;;;;;;;0.04;100.00;101191.00;5051293;28;20081;-79
2022/03/14 04:31:54;;;;;;;7.05;1.25;;;;;;;0.10;100.00;101197.69;5046709;28;20025;-79
2022/03/14 04:34:20;;;;;;;8.48;1.58;;;;;;;0.18;100.00;101198.06;5053071;28;20046;-80
2022/03/14 04:36:50;;;;;;;3.83;0.90;;;;;;;0.16;100.00;101199.94;5035633;28;20032;-78
2022/03/14 04:39:20;;;;;;;7.57;1.75;;;;;;;0.04;100.00;101180.44;5052896;28;20695;-80
2022/03/14 04:41:45;;;;;;;7.05;1.70;;;;;;;0.15;100.00;101203.53;5071137;28;20107;-79
2022/03/14 04:44:11;;;;;;;14.57;2.30;;;;;;;0.13;100.00;101198.38;5065014;28;20408;-79
2022/03/14 04:46:37;;;;;;;15.60;1.70;;;;;;;0.15;100.00;101200.91;5046340;28;20075;-78
2022/03/14 04:49:04;;;;;;;8.25;1.65;;;;;;;0.23;100.00;101206.53;5052375;28;20107;-78
2022/03/14 04:51:31;;;;;;;4.60;1.20;;;;;;;0.22;100.00;101215.44;5034166;28;20043;-79
2022/03/14 04:53:57;;;;;;;6.30;1.40;;;;;;;0.20;100.00;101214.69;5049169;28;20032;-78
2022/03/14 04:56:23;;;;;;;8.65;1.30;;;;;;;0.40;100.00;101214.25;5047398;28;20493;-79
2022/03/14 04:58:48;;;;;;;7.30;1.27;;;;;;;0.53;100.00;101221.38;5033765;28;20474;-78
2022/03/14 05:01:14;;;;;;;9.40;1.73;;;;;;;0.54;100.00;101207.22;5049015;28;20036;-79
2022/03/14 05:03:40;;;;;;;1.55;0.80;;;;;;;0.59;100.00;101215.69;5047649;28;20385;-79
2022/03/14 05:06:05;;;;;;;2.75;1.13;;;;;;;0.69;100.00;101221.22;5034749;28;20035;-79
2022/03/14 05:08:31;;;;;;;5.32;1.15;;;;;;;0.61;100.00;101196.13;5030351;28;20048;-79
2022/03/14 05:10:57;;;;;;;4.88;1.25;;;;;;;0.76;100.00;101220.72;5034763;28;20405;-78
2022/03/14 05:13:23;;;;;;;5.35;1.10;;;;;;;0.68;100.00;101209.78;5067273;28;20063;-79
2022/03/14 05:15:49;;;;;;;13.00;1.98;;;;;;;0.76;100.00;101228.66;5029113;28;20071;-79
2022/03/14 05:18:17;;;;;;;6.85;1.55;;;;;;;0.70;100.00;101231.72;5073677;28;20063;-79
2022/03/14 05:20:43;;;;;;;9.10;1.58;;;;;;;0.56;100.00;101243.22;5065610;28;20135;-78
2022/03/14 05:23:08;;;;;;;7.50;1.60;;;;;;;0.48;100.00;101240.22;5063751;28;20099;-79
2022/03/14 05:25:34;;;;;;;7.72;2.08;;;;;;;0.41;100.00;101241.56;5064783;28;20039;-79
2022/03/14 05:28:02;;;;;;;2.65;0.75;;;;;;;0.44;100.00;101258.06;5029703;28;20075;-76
2022/03/14 05:30:28;;;;;;;7.38;1.45;;;;;;;0.40;100.00;101261.03;5059087;28;20040;-78
2022/03/14 05:32:53;;;;;;;11.77;1.50;;;;;;;0.39;100.00;101259.31;5033055;28;20042;-79
2022/03/14 05:35:19;;;;;;;8.88;1.40;;;;;;;0.13;100.00;101234.50;5061500;28;20033;-79
2022/03/14 05:37:46;;;;;;;6.55;2.13;;;;;;;0.30;100.00;101266.03;5065192;28;20029;-80
2022/03/14 05:40:13;;;;;;;6.93;1.20;;;;;;;0.10;100.00;101214.41;5046283;28;20032;-79
2022/03/14 05:42:38;;;;;;;5.07;1.48;;;;;;;0.35;100.00;101256.03;5060449;28;20020;-78
2022/03/14 05:45:04;;;;;;;12.25;2.85;;;;;;;0.38;100.00;101270.84;5062680;28;20044;-79
2022/03/14 05:47:30;;;;;;;4.50;1.45;;;;;;;0.42;100.00;101273.22;5061952;28;20036;-79
2022/03/14 05:49:56;;;;;;;9.00;1.70;;;;;;;0.43;100.00;101269.59;5046922;28;20047;-79
2022/03/14 05:52:21;;;;;;;7.85;1.45;;;;;;;0.54;100.00;101278.66;5068375;28;20076;-79
2022/03/14 05:54:48;;;;;;;5.65;1.48;;;;;;;0.57;100.00;101275.81;5049995;28;20531;-79
2022/03/14 05:57:14;;;;;;;7.47;1.52;;;;;;;0.68;100.00;101286.53;5062708;28;20041;-79
2022/03/14 05:59:39;;;;;;;8.35;1.73;;;;;;;0.78;100.00;101284.16;5033098;28;20083;-79
2022/03/14 06:02:05;;;;;;;7.25;1.35;;;;;;;0.86;100.00;101289.81;5031965;28;20094;-79
2022/03/14 06:04:31;;;;;;;7.60;1.35;;;;;;;0.92;100.00;101286.75;5047591;28;20094;-79
2022/03/14 06:06:57;;;;;;;4.82;1.67;;;;;;;1.00;100.00;101292.38;5051197;28;20041;-79
2022/03/14 06:09:25;;;;;;;3.25;1.10;;;;;;;1.08;100.00;101302.47;5047373;28;20064;-78
2022/03/14 06:11:51;;;;;;;14.77;2.40;;;;;;;1.16;100.00;101297.50;5063931;28;20032;-79
2022/03/14 06:14:17;;;;;;;6.40;1.45;;;;;;;1.16;100.00;101302.81;5053254;28;20120;-79
2022/03/14 06:16:43;;;;;;;8.38;1.80;;;;;;;1.17;100.00;101296.59;5032073;28;20116;-79
2022/03/14 06:19:09;;;;;;;11.43;1.45;;;;;;;1.19;100.00;101315.00;5027653;28;20045;-79
2022/03/14 06:21:35;;;;;;;9.80;1.25;;;;;;;1.04;100.00;101298.34;5068390;28;20486;-80
2022/03/14 06:24:01;;;;;;;9.23;1.88;;;;;;;1.26;100.00;101330.41;5038626;28;20043;-79
2022/03/14 06:26:27;;;;;;;5.03;1.38;;;;;;;1.28;100.00;101333.81;5073301;28;20437;-78
2022/03/14 06:28:52;;;;;;;7.40;1.35;;;;;;;1.24;100.00;101323.50;5038395;28;20036;-78
2022/03/14 06:31:19;;;;;;;4.15;1.88;;;;;;;1.40;100.00;101341.88;5054253;28;20043;-78
2022/03/14 06:33:45;;;;;;;5.70;0.90;;;;;;;1.49;100.00;101343.94;5068741;28;20040;-78
2022/03/14 06:36:10;;;;;;;7.18;0.95;;;;;;;1.58;100.00;101335.34;5068243;28;20108;-78
2022/03/14 06:38:36;;;;;;;1.58;1.02;;;;;;;1.56;100.00;101324.00;5052021;28;20038;-78
2022/03/14 06:41:02;;;;;;;3.13;1.30;;;;;;;1.78;100.00;101346.41;5071657;28;20435;-78
2022/03/14 06:43:29;;;;;;;5.47;1.70;;;;;;;1.89;100.00;101357.13;5054641;28;20040;-79
2022/03/14 06:45:54;;;;;;;10.00;2.13;;;;;;;2.03;100.00;101370.28;5070814;28;20051;-77
2022/03/14 06:48:20;;;;;;;4.10;0.90;;;;;;;2.14;100.00;101373.06;5054211;28;20637;-79
2022/03/14 06:50:48;;;;;;;8.02;1.58;;;;;;;2.28;100.00;101369.44;5068726;28;20037;-79
2022/03/14 06:53:14;;;;;;;6.50;1.63;;;;;;;2.40;100.00;101379.19;5069724;28;20024;-77
2022/03/14 06:55:40;;;;;;;5.57;1.27;;;;;;;2.54;100.00;101372.91;5050572;28;20036;-78
2022/03/14 06:58:05;;;;;;;5.57;1.15;;;;;;;2.68;100.00;101363.13;5030066;28;20040;-78
2022/03/14 07:00:31;;;;;;;6.70;1.23;;;;;;;2.86;100.00;101375.09;5048860;28;20036;-78
2022/03/14 07:02:56;;;;;;;7.10;1.75;;;;;;;2.94;100.00;101372.72;5035048;28;20040;-78
2022/03/14 07:05:24;;;;;;;8.50;2.10;;;;;;;2.97;100.00;101377.81;5048908;28;20463;-78
2022/03/14 07:07:50;;;;;;;3.42;1.45;;;;;;;2.98;100.00;101373.31;5035029;28;20036;-78
2022/03/14 07:10:17;;;;;;;5.47;1.48;;;;;;;3.05;100.00;101386.06;5059260;28;20029;-78
2022/03/14 07:12:46;;;;;;;7.97;1.70;;;;;;;2.99;100.00;101385.63;5062432;28;20033;-78
2022/03/14 07:15:18;;;;;;;8.93;1.80;;;;;;;2.90;100.00;101396.94;5045671;28;20037;-79
2022/03/14 07:17:44;;;;;;;9.00;1.33;;;;;;;2.82;100.00;101397.50;5065152;28;20024;-78
2022/03/14 07:20:11;;;;;;;6.57;1.10;;;;;;;2.83;100.00;101405.38;5065052;28;20094;-77
2022/03/14 07:22:52;;;;;;;9.93;2.50;;;;;;;2.83;100.00;101408.03;5069070;28;20048;-78
2022/03/14 07:25:19;;;;;;;10.20;2.42;;;;;;;2.81;100.00;101398.47;5066387;28;20044;-77
2022/03/14 07:27:45;;;;;;;9.13;3.58;;;;;;;2.76;100.00;101382.00;5054462;28;20048;-78
2022/03/14 07:30:11;;;;;;;12.77;4.53;;;;;;;2.84;100.00;101388.47;5068399;28;20421;-78
2022/03/14 07:32:36;;;;;;;5.95;3.05;;;;;;;3.00;100.00;101409.44;5053592;28;20036;-78
2022/03/14 07:35:02;;;;;;;10.85;5.30;;;;;;;3.12;100.00;101422.81;5048338;28;20547;-79
2022/03/14 07:37:28;;;;;;;14.15;7.90;;;;;;;3.11;100.00;101413.16;5063476;28;20029;-79
2022/03/14 07:39:53;;;;;;;32.53;11.70;;;;;;;3.27;100.00;101433.16;5049188;28;20032;-79
2022/03/14 07:42:19;;;;;;;17.55;6.43;;;;;;;3.28;100.00;101420.72;5035782;28;20605;-78
2022/03/14 07:44:45;;;;;;;18.08;6.78;;;;;;;3.40;100.00;101432.28;5066237;28;20051;-79
2022/03/14 07:47:13;;;;;;;9.70;4.82;;;;;;;3.49;100.00;101439.56;5043812;28;20025;-79
2022/03/14 07:49:39;;;;;;;13.10;3.05;;;;;;;3.59;100.00;101440.56;5062442;28;20612;-80
2022/03/14 07:52:06;;;;;;;20.17;2.80;;;;;;;3.49;100.00;101413.84;5043404;28;20354;-79
2022/03/14 07:54:32;;;;;;;12.30;1.83;;;;;;;3.76;100.00;101460.63;5078715;28;20033;-78
2022/03/14 07:56:58;;;;;;;14.38;2.15;;;;;;;3.78;100.00;101455.16;5063960;28;20500;-78
2022/03/14 07:59:23;;;;;;;7.72;1.73;;;;;;;3.88;100.00;101474.81;5048453;28;20133;-79
2022/03/14 08:01:49;;;;;;;7.80;2.00;;;;;;;3.96;100.00;101483.06;5064043;28;20105;-79
2022/03/14 08:04:15;;;;;;;9.70;2.00;;;;;;;3.96;100.00;101462.59;5043994;28;20051;-78
2022/03/14 08:06:43;;;;;;;10.40;2.25;;;;;;;4.12;100.00;101477.44;5047447;28;20070;-78
2022/03/14 08:09:09;;;;;;;9.48;1.50;;;;;;;4.24;100.00;101491.63;5054093;28;20040;-79
2022/03/14 08:11:38;;;;;;;12.15;2.65;;;;;;;4.21;100.00;101481.19;5068476;28;20498;-78
2022/03/14 08:14:04;;;;;;;12.07;1.98;;;;;;;4.36;100.00;101496.84;5057618;28;20028;-78
2022/03/14 08:16:30;;;;;;;12.10;2.75;;;;;;;4.43;100.00;101501.72;5054044;28;20033;-78
2022/03/14 08:18:56;;;;;;;7.75;1.60;;;;;;;4.48;100.00;101492.41;5043906;28;20040;-78
2022/03/14 08:21:22;;;;;;;6.15;1.77;;;;;;;4.56;100.00;101497.16;5045385;28;20041;-79
2022/03/14 08:23:47;;;;;;;12.60;2.00;;;;;;;4.63;100.00;101507.22;5067349;28;20052;-79
2022/03/14 08:26:13;;;;;;;8.75;1.98;;;;;;;4.62;100.00;101499.31;5062983;28;20094;-77
2022/03/14 08:28:42;;;;;;;12.27;1.88;;;;;;;4.79;100.00;101509.53;5031521;28;20461;-79
2022/03/14 08:31:08;;;;;;;12.43;1.95;;;;;;;4.92;100.00;101513.88;5055486;28;20037;-79
2022/03/14 08:33:39;;;;;;;6.53;1.45;;;;;;;5.05;100.00;101517.28;5054276;28;20168;-80
2022/03/14 08:36:06;;;;;;;9.63;1.98;;;;;;;5.17;100.00;101528.78;5062049;28;20298;-79
2022/03/14 08:38:33;;;;;;;6.18;1.58;;;;;;;5.23;100.00;101536.28;5069668;28;20044;-80
2022/03/14 08:40:59;;;;;;;5.32;1.65;;;;;;;5.34;100.00;101533.63;5030633;28;20055;-80
2022/03/14 08:43:24;;;;;;;6.72;1.50;;;;;;;5.43;100.00;101538.22;5046003;28;20040;-79
2022/03/14 08:45:54;;;;;;;9.32;2.50;;;;;;;5.54;100.00;101545.34;5051622;28;20417;-79
2022/03/14 08:48:19;;;;;;;6.15;1.98;;;;;;;5.65;100.00;101550.66;5056400;28;20107;-80
2022/03/14 08:50:45;;;;;;;11.77;2.58;;;;;;;5.75;100.00;101544.59;5026780;28;20440;-79
2022/03/14 08:53:10;;;;;;;11.15;2.63;;;;;;;5.82;100.00;101540.44;5030601;28;20577;-81
2022/03/14 08:55:36;;;;;;;12.73;2.75;;;;;;;6.05;100.00;101566.13;5033812;28;20094;-79
2022/03/14 08:58:03;;;;;;;10.48;2.60;;;;;;;6.19;100.00;101562.31;5035346;28;20032;-79
2022/03/14 09:00:29;;;;;;;14.90;2.65;;;;;;;6.41;100.00;101569.38;5062864;28;20507;-80
2022/03/14 09:02:55;;;;;;;9.52;2.50;;;;;;;6.62;100.00;101576.56;5033139;28;20032;-79
2022/03/14 09:05:22;;;;;;;11.55;2.28;;;;;;;6.82;100.00;101567.69;5053156;28;20040;-79
2022/03/14 09:07:48;;;;;;;13.52;2.75;;;;;;;7.07;100.00;101576.28;5069339;28;20108;-80
2022/03/14 09:10:15;;;;;;;10.65;2.20;;;;;;;7.33;100.00;101580.22;5048425;28;20060;-80
2022/03/14 09:12:42;;;;;;;16.40;4.03;;;;;;;7.66;100.00;101580.88;5036259;28;20064;-79
2022/03/14 09:15:10;;;;;;;15.23;3.70;;;;;;;8.09;100.00;101580.53;5054219;28;20033;-79
2022/03/14 09:17:55;;;;;;;2.80;1.30;;;;;;;8.38;100.00;101591.25;5085834;28;20040;-80
2022/03/14 09:20:24;;;;;;;11.65;3.22;;;;;;;8.40;100.00;101587.63;5051221;28;20039;-80
2022/03/14 09:22:51;;;;;;;12.93;5.25;;;;;;;8.62;100.00;101597.22;5069332;28;20032;-80
2022/03/14 09:25:18;;;;;;;14.02;6.65;;;;;;;8.90;100.00;101607.06;5049892;28;20119;-80
2022/03/14 09:27:44;;;;;;;15.35;3.17;;;;;;;9.06;100.00;101611.81;5064218;28;20028;-81
2022/03/14 09:30:11;;;;;;;11.63;2.75;;;;;;;8.83;100.00;101594.34;5068292;28;20111;-85
2022/03/14 09:32:37;;;;;;;11.38;2.60;;;;;;;8.88;100.00;101598.28;5035709;28;20041;-85
2022/03/14 09:35:04;;;;;;;12.30;2.72;;;;;;;8.57;100.00;101576.19;5035539;28;20020;-85
2022/03/14 09:37:30;;;;;;;16.15;2.60;;;;;;;8.77;100.00;101590.41;5058955;28;20036;-85
2022/03/14 09:39:56;;;;;;;14.90;1.80;;;;;;;9.01;100.00;101624.81;5063907;28;20043;-85
2022/03/14 09:42:23;;;;;;;7.78;2.20;;;;;;;9.19;100.00;101631.13;5052629;28;20033;-85
2022/03/14 09:44:53;;;;;;;9.77;2.20;;;;;;;9.51;100.00;101634.44;5066225;28;20082;-85
2022/03/14 09:47:27;;;;;;;8.13;2.03;;;;;;;9.80;100.00;101599.38;5050484;28;20040;-85
2022/03/14 09:49:57;;;;;;;7.80;1.40;;;;;;;10.74;100.00;101609.72;5053162;28;20122;-85
2022/03/14 09:52:23;;;;;;;19.52;1.90;;;;;;;10.92;100.00;101623.97;5052989;28;20671;-85
2022/03/14 09:54:49;;;;;;;13.52;2.30;;;;;;;11.02;100.00;101644.59;5054378;28;20037;-86
2022/03/14 09:57:15;;;;;;;14.23;1.80;;;;;;;11.33;100.00;101648.50;5064552;28;20032;-85
2022/03/14 09:59:42;;;;;;;10.43;1.98;;;;;;;11.64;100.00;101647.97;5045789;28;20032;-83
2022/03/14 10:02:11;;;;;;;11.20;1.63;;;;;;;11.71;99.79;101634.72;5036194;28;20037;-83
2022/03/14 10:04:37;;;;;;;14.63;1.98;;;;;;;11.72;99.43;101610.28;5039663;28;20036;-85
2022/03/14 10:07:02;;;;;;;9.35;1.70;;;;;;;12.03;99.38;101651.03;5048123;28;20455;-87
2022/03/14 10:09:28;;;;;;;7.38;1.65;;;;;;;12.11;99.51;101663.69;5074135;28;20121;-86
2022/03/14 10:11:56;;;;;;;15.80;2.05;;;;;;;11.95;100.00;101660.94;5056835;28;20029;-85
2022/03/14 10:14:22;;;;;;;14.77;2.63;;;;;;;11.79;95.78;101624.81;5056100;28;20025;-84
2022/03/14 10:16:48;;;;;;;9.35;2.58;;;;;;;11.93;97.03;101657.56;5056648;28;20085;-86
2022/03/14 10:19:20;;;;;;;11.30;2.03;;;;;;;11.80;93.34;101647.19;5039153;28;20440;-85
2022/03/14 10:21:46;;;;;;;9.32;2.22;;;;;;;11.48;95.46;101659.50;5072825;28;20107;-86
2022/03/14 10:24:13;;;;;;;8.98;2.47;;;;;;;11.36;86.88;101656.25;5072552;28;20024;-86
2022/03/14 10:26:44;;;;;;;13.35;1.65;;;;;;;11.34;84.05;101635.88;5037593;28;20478;-84
2022/03/14 10:29:13;;;;;;;5.00;1.63;;;;;;;11.50;79.36;101648.59;5071554;28;20029;-87
2022/03/14 10:31:40;;;;;;;11.52;1.92;;;;;;;11.42;78.03;101663.69;5045566;28;20385;-86
2022/03/14 10:34:18;;;;;;;9.15;1.95;;;;;;;11.05;86.30;101658.56;5038747;28;20032;-75
2022/03/14 10:36:48;;;;;;;14.55;2.03;;;;;;;10.97;88.08;101659.34;5038123;28;20036;-76
2022/03/14 10:39:22;;;;;;;9.95;1.60;;;;;;;11.27;89.55;101662.56;5053585;28;20077;-77
2022/03/14 10:41:59;;;;;;;6.35;1.55;;;;;;;11.57;77.97;101665.81;5073854;28;20051;-78
2022/03/14 10:44:25;;;;;;;9.80;1.70;;;;;;;11.38;80.74;101661.50;5045396;28;20204;-77
2022/03/14 10:46:51;;;;;;;8.10;1.80;;;;;;;11.35;78.43;101678.81;5034950;28;20028;-78
2022/03/14 10:49:17;;;;;;;6.85;1.33;;;;;;;11.47;79.43;101686.63;5050237;28;20075;-77
2022/03/14 10:52:06;;;;;;;7.22;1.50;;;;;;;11.40;82.17;101691.78;5071045;28;20067;-79
2022/03/14 10:54:36;;;;;;;11.32;1.60;;;;;;;11.12;79.78;101674.94;5063517;28;20440;-78
2022/03/14 10:57:16;;;;;;;6.03;1.50;;;;;;;11.11;75.54;101676.75;5051956;28;20064;-77
2022/03/14 10:59:44;;;;;;;6.07;1.75;;;;;;;10.79;73.23;101621.69;5071368;28;20047;-77
2022/03/14 11:02:17;;;;;;;9.60;2.15;;;;;;;11.13;75.59;101690.91;5038517;28;20036;-75
2022/03/14 11:04:51;;;;;;;9.10;1.73;;;;;;;11.50;69.17;101676.34;5053501;28;20037;-75
2022/03/14 11:07:18;;;;;;;4.60;1.38;;;;;;;11.91;68.92;101664.97;5064546;28;20519;-75
2022/03/14 11:09:48;;;;;;;9.27;1.55;;;;;;;12.05;68.52;101672.44;5063658;28;20126;-77
2022/03/14 11:12:19;;;;;;;5.47;1.17;;;;;;;12.17;65.96;101684.63;5053359;28;20063;-77
2022/03/14 11:14:53;;;;;;;9.80;1.73;;;;;;;12.37;65.05;101684.34;5052633;28;20503;-77
2022/03/14 11:17:23;;;;;;;20.42;1.92;;;;;;;12.73;62.23;101674.94;5066431;28;20037;-75
2022/03/14 11:19:49;;;;;;;6.68;2.08;;;;;;;12.91;60.55;101653.19;5071089;28;20040;-77